createdAt,value
2022-11-02T00:02:21.543Z,84.75
2022-11-02T00:04:53.052Z,84.05
2022-11-02T00:07:24.046Z,87.40
2022-11-02T00:09:54.856Z,86.22
2022-11-02T00:12:22.388Z,94.57
2022-11-02T00:14:54.441Z,98.00
2022-11-02T00:17:26.191Z,97.18
2022-11-02T00:19:56.156Z,90.13
2022-11-02T00:22:26.154Z,78.90
2022-11-02T00:27:42.845Z,82.63
2022-11-02T00:30:16.726Z,87.78
2022-11-02T00:32:48.150Z,79.22
2022-11-02T00:35:17.445Z,86.88
2022-11-02T00:37:46.505Z,83.10
2022-11-02T00:40:17.473Z,78.20
2022-11-02T00:42:48.169Z,79.10
2022-11-02T00:45:25.149Z,78.10
2022-11-02T00:47:55.387Z,85.38
2022-11-02T00:50:26.425Z,82.47
2022-11-02T00:52:53.795Z,86.80
2022-11-02T00:55:24.452Z,81.03
2022-11-02T00:57:57.907Z,96.80
2022-11-02T01:00:28.971Z,105.90
2022-11-02T01:03:03.848Z,92.07
2022-11-02T01:05:36.916Z,75.97
2022-11-02T01:08:09.239Z,80.60
2022-11-02T01:10:36.491Z,69.13
2022-11-02T01:13:06.789Z,84.25
2022-11-02T01:15:36.429Z,87.75
2022-11-02T01:18:08.352Z,77.25
2022-11-02T01:20:39.043Z,74.25
2022-11-02T01:23:07.718Z,75.15
2022-11-02T01:25:35.484Z,81.50
2022-11-02T01:28:03.590Z,80.60
2022-11-02T01:30:33.766Z,79.70
2022-11-02T01:33:07.403Z,85.03
2022-11-02T01:35:38.668Z,83.35
2022-11-02T01:38:06.381Z,81.25
2022-11-02T01:40:50.164Z,75.05
2022-11-02T01:43:35.247Z,81.07
2022-11-02T01:46:13.799Z,76.97
2022-11-02T01:49:10.138Z,76.38
2022-11-02T01:51:50.607Z,72.45
2022-11-02T01:54:29.798Z,74.35
2022-11-02T01:57:04.788Z,71.60
2022-11-02T01:59:57.972Z,70.32
2022-11-02T02:02:30.780Z,74.90
2022-11-02T02:05:19.572Z,72.37
2022-11-02T02:07:51.011Z,73.47
2022-11-02T02:10:19.149Z,73.70
2022-11-02T02:16:04.020Z,72.97
2022-11-02T02:19:03.520Z,67.57
2022-11-02T02:22:05.343Z,67.57
2022-11-02T02:24:58.441Z,62.17
2022-11-02T02:27:55.673Z,68.35
2022-11-02T02:30:26.431Z,61.28
2022-11-02T02:33:07.372Z,56.70
2022-11-02T02:36:06.006Z,60.75
2022-11-02T02:39:03.973Z,63.78
2022-11-02T02:41:45.340Z,61.03
2022-11-02T02:44:33.557Z,65.18
2022-11-02T02:47:12.926Z,65.15
2022-11-02T02:49:57.289Z,61.92
2022-11-02T02:52:27.683Z,67.80
2022-11-02T02:54:59.909Z,67.20
2022-11-02T02:57:31.588Z,64.30
2022-11-02T03:00:00.191Z,64.85
2022-11-02T03:02:42.830Z,65.68
2022-11-02T03:05:32.902Z,62.45
2022-11-02T03:08:17.773Z,57.63
2022-11-02T03:11:16.094Z,62.92
2022-11-02T03:14:24.095Z,58.40
2022-11-02T03:17:11.477Z,63.35
2022-11-02T03:20:04.044Z,70.13
2022-11-02T03:23:13.556Z,71.40
2022-11-02T03:26:13.018Z,71.03
2022-11-02T03:29:03.999Z,76.18
2022-11-02T03:31:45.981Z,77.53
2022-11-02T03:34:28.159Z,75.57
2022-11-02T03:37:12.102Z,74.97
2022-11-02T03:39:51.111Z,71.60
2022-11-02T03:42:23.541Z,62.00
2022-11-02T03:45:24.846Z,63.25
2022-11-02T03:48:06.626Z,64.13
2022-11-02T03:53:51.548Z,63.30
2022-11-02T03:56:44.152Z,61.00
2022-11-02T03:59:15.819Z,56.90
2022-11-02T04:01:50.624Z,60.40
2022-11-02T04:04:24.027Z,55.05
2022-11-02T04:06:55.270Z,59.85
2022-11-02T04:09:26.062Z,59.30
2022-11-02T04:12:13.077Z,63.25
2022-11-02T04:14:43.344Z,62.20
2022-11-02T04:17:34.102Z,61.65
2022-11-02T04:20:07.163Z,58.72
2022-11-02T04:22:56.407Z,64.25
2022-11-02T04:25:27.428Z,66.82
2022-11-02T04:28:17.470Z,65.28
2022-11-02T04:31:03.040Z,66.72
2022-11-02T04:33:36.761Z,71.53
2022-11-02T04:36:11.823Z,66.28
2022-11-02T04:38:45.408Z,81.22
2022-11-02T04:41:43.041Z,87.93
2022-11-02T04:44:31.676Z,107.53
2022-11-02T04:47:26.093Z,125.78
2022-11-02T04:49:56.367Z,125.28
2022-11-02T04:52:28.357Z,116.57
2022-11-02T04:54:55.691Z,116.40
2022-11-02T04:57:27.916Z,122.03
2022-11-02T04:59:59.327Z,120.10
2022-11-02T05:02:27.892Z,117.10
2022-11-02T05:04:56.682Z,114.30
2022-11-02T05:07:29.936Z,113.45
2022-11-02T05:10:05.208Z,124.78
2022-11-02T05:12:38.092Z,120.22
2022-11-02T05:15:06.228Z,113.70
2022-11-02T05:17:33.837Z,113.82
2022-11-02T05:20:05.915Z,117.82
2022-11-02T05:22:33.763Z,114.68
2022-11-02T05:25:05.513Z,108.43
2022-11-02T05:27:34.873Z,102.93
2022-11-02T05:30:05.934Z,103.47
2022-11-02T05:32:35.744Z,106.38
2022-11-02T05:35:05.735Z,104.65
2022-11-02T05:37:34.769Z,109.18
2022-11-02T05:40:07.661Z,108.65
2022-11-02T05:42:38.047Z,110.13
2022-11-02T05:45:06.382Z,117.72
2022-11-02T05:47:38.241Z,109.93
2022-11-02T05:50:06.055Z,114.95
2022-11-02T05:52:37.615Z,125.43
2022-11-02T05:55:08.858Z,121.55
2022-11-02T05:57:39.127Z,111.97
2022-11-02T06:00:11.349Z,118.45
2022-11-02T06:03:02.521Z,117.55
2022-11-02T06:05:33.709Z,113.30
2022-11-02T06:08:04.995Z,122.10
2022-11-02T06:10:35.142Z,113.95
2022-11-02T06:13:06.979Z,111.63
2022-11-02T06:15:34.634Z,107.15
2022-11-02T06:18:01.816Z,110.38
2022-11-02T06:20:33.236Z,114.78
2022-11-02T06:23:05.368Z,111.53
2022-11-02T06:25:34.249Z,108.35
2022-11-02T06:28:04.113Z,106.53
2022-11-02T06:30:32.823Z,109.53
2022-11-02T06:33:07.376Z,102.57
2022-11-02T06:35:35.794Z,102.18
2022-11-02T06:38:03.824Z,107.00
2022-11-02T06:40:32.274Z,102.03
2022-11-02T06:43:15.921Z,96.55
2022-11-02T06:45:49.168Z,100.20
2022-11-02T06:48:20.354Z,99.82
2022-11-02T06:50:49.986Z,105.25
2022-11-02T06:53:20.965Z,94.75
2022-11-02T06:55:57.817Z,88.90
2022-11-02T06:58:28.308Z,90.88
2022-11-02T07:01:09.823Z,89.18
2022-11-02T07:03:37.816Z,94.38
2022-11-02T07:06:09.797Z,79.63
2022-11-02T07:08:42.580Z,84.53
2022-11-02T07:11:24.505Z,90.30
2022-11-02T07:13:53.411Z,82.82
2022-11-02T07:16:25.555Z,82.88
2022-11-02T07:18:53.054Z,78.57
2022-11-02T07:21:24.119Z,79.38
2022-11-02T07:23:53.305Z,76.03
2022-11-02T07:26:22.018Z,74.72
2022-11-02T07:28:56.738Z,70.85
2022-11-02T07:31:27.886Z,80.07
2022-11-02T07:33:57.006Z,73.95
2022-11-02T07:36:26.411Z,75.40
2022-11-02T07:38:56.204Z,76.75
2022-11-02T07:41:26.447Z,69.47
2022-11-02T07:43:55.903Z,71.65
2022-11-02T07:46:50.626Z,64.50
2022-11-02T07:49:21.440Z,62.72
2022-11-02T07:51:53.395Z,61.78
2022-11-02T07:54:26.621Z,62.83
2022-11-02T07:56:55.991Z,62.25
2022-11-02T07:59:23.869Z,62.03
2022-11-02T08:01:55.527Z,60.78
2022-11-02T08:04:27.452Z,56.42
2022-11-02T08:06:58.389Z,61.55
2022-11-02T08:09:26.927Z,61.13
2022-11-02T08:12:00.309Z,64.43
2022-11-02T08:14:28.884Z,59.58
2022-11-02T08:16:56.921Z,60.60
2022-11-02T08:19:29.975Z,63.92
2022-11-02T08:21:59.350Z,64.15
2022-11-02T08:24:26.899Z,61.08
2022-11-02T08:26:55.118Z,61.47
2022-11-02T08:29:22.997Z,69.38
2022-11-02T08:31:53.251Z,78.97
2022-11-02T08:34:24.832Z,72.32
2022-11-02T08:36:56.618Z,74.82
2022-11-02T08:39:32.501Z,72.70
2022-11-02T08:42:03.535Z,70.47
2022-11-02T08:44:34.531Z,69.18
2022-11-02T08:47:08.477Z,71.30
2022-11-02T08:49:37.978Z,69.10
2022-11-02T08:52:08.538Z,69.72
2022-11-02T08:54:36.237Z,77.95
2022-11-02T08:57:08.105Z,100.68
2022-11-02T08:59:38.615Z,92.40
2022-11-02T09:02:08.435Z,102.68
2022-11-02T09:04:40.585Z,103.82
2022-11-02T09:07:13.539Z,124.47
2022-11-02T09:09:43.235Z,64.60
2022-11-02T09:12:16.014Z,90.80
2022-11-02T09:14:47.363Z,89.95
2022-11-02T09:17:16.595Z,91.18
2022-11-02T09:19:48.038Z,107.10
2022-11-02T09:22:20.407Z,82.38
2022-11-02T09:24:49.974Z,100.55
2022-11-02T09:27:21.581Z,85.20
2022-11-02T09:29:50.224Z,83.70
2022-11-02T09:32:17.970Z,87.25
2022-11-02T09:34:47.541Z,99.22
2022-11-02T09:37:17.379Z,94.07
2022-11-02T09:39:48.003Z,95.53
2022-11-02T09:42:29.146Z,94.05
2022-11-02T09:45:11.422Z,98.63
2022-11-02T09:48:16.793Z,89.93
2022-11-02T09:51:02.095Z,86.13
2022-11-02T09:53:49.320Z,92.07
2022-11-02T09:56:22.621Z,93.95
2022-11-02T09:59:04.073Z,95.03
2022-11-02T10:02:26.143Z,104.18
2022-11-02T10:05:24.697Z,97.72
2022-11-02T10:08:30.075Z,100.05
2022-11-02T10:11:26.341Z,93.60
2022-11-02T10:14:31.647Z,96.28
2022-11-02T10:17:26.595Z,113.10
2022-11-02T10:19:57.178Z,94.30
2022-11-02T10:22:32.832Z,96.70
2022-11-02T10:25:06.379Z,96.25
2022-11-02T10:27:38.452Z,104.50
2022-11-02T10:30:22.739Z,101.15
2022-11-02T10:32:57.005Z,97.30
2022-11-02T10:38:55.783Z,113.32
2022-11-02T10:41:59.140Z,114.97
2022-11-02T10:44:52.120Z,98.88
2022-11-02T10:47:38.459Z,102.50
2022-11-02T10:50:54.530Z,109.15
2022-11-02T10:56:32.865Z,112.90
2022-11-02T10:59:01.024Z,100.85
2022-11-02T11:01:31.558Z,110.43
2022-11-02T11:04:04.285Z,108.32
2022-11-02T11:06:40.803Z,112.72
2022-11-02T11:09:21.564Z,104.75
2022-11-02T11:12:26.459Z,119.88
2022-11-02T11:21:06.753Z,104.03
2022-11-02T11:23:37.538Z,115.35
2022-11-02T11:26:15.593Z,106.85
2022-11-02T11:28:56.118Z,106.10
2022-11-02T11:31:42.124Z,95.30
2022-11-02T11:34:27.186Z,95.63
2022-11-02T11:37:08.827Z,109.97
2022-11-02T11:39:42.094Z,91.57
2022-11-02T11:42:31.384Z,97.78
2022-11-02T11:45:09.564Z,105.32
2022-11-02T11:47:41.808Z,100.40
2022-11-02T11:50:29.667Z,99.32
2022-11-02T11:53:28.408Z,108.10
2022-11-02T11:56:02.701Z,101.53
2022-11-02T11:58:34.618Z,111.82
2022-11-02T12:01:22.495Z,114.07
2022-11-02T12:04:03.348Z,98.10
2022-11-02T12:06:55.496Z,91.30
2022-11-02T12:09:50.468Z,97.45
2022-11-02T12:12:56.983Z,93.80
2022-11-02T12:16:04.072Z,94.38
2022-11-02T12:19:15.804Z,91.82
2022-11-02T12:25:30.388Z,90.50
2022-11-02T12:28:38.635Z,90.88
2022-11-02T12:31:41.009Z,86.90
2022-11-02T12:34:34.976Z,103.95
2022-11-02T12:37:40.518Z,95.40
2022-11-02T12:40:11.809Z,95.53
2022-11-02T12:43:24.970Z,95.13
2022-11-02T12:46:22.103Z,97.28
2022-11-02T12:49:24.923Z,104.38
2022-11-02T12:52:36.883Z,103.63
2022-11-02T12:55:28.121Z,102.93
2022-11-02T12:58:15.760Z,112.38
2022-11-02T13:00:48.161Z,100.93
2022-11-02T13:03:55.055Z,105.72
2022-11-02T13:06:50.857Z,91.95
2022-11-02T13:09:58.099Z,95.50
2022-11-02T13:12:31.377Z,87.90
2022-11-02T13:15:10.893Z,93.97
2022-11-02T13:17:59.276Z,101.05
2022-11-02T13:20:41.952Z,94.03
2022-11-02T13:26:57.604Z,95.30
2022-11-02T13:29:59.863Z,93.60
2022-11-02T13:32:43.905Z,98.38
2022-11-02T13:35:36.691Z,89.22
2022-11-02T13:41:37.704Z,98.20
2022-11-02T13:44:28.852Z,91.82
2022-11-02T13:47:31.519Z,103.13
2022-11-02T13:50:07.996Z,114.32
2022-11-02T13:53:09.116Z,107.30
2022-11-02T13:55:45.762Z,110.93
2022-11-02T13:58:39.022Z,126.43
2022-11-02T14:01:12.985Z,122.35
2022-11-02T14:04:16.938Z,118.68
2022-11-02T14:06:59.716Z,119.03
2022-11-02T14:09:53.699Z,125.80
2022-11-02T14:12:31.688Z,119.90
2022-11-02T14:15:22.487Z,120.95
2022-11-02T14:18:15.171Z,104.25
2022-11-02T14:20:51.096Z,89.18
2022-11-02T14:23:49.927Z,90.90
2022-11-02T14:26:35.161Z,86.97
2022-11-02T14:29:31.810Z,89.43
2022-11-02T14:32:14.516Z,91.03
2022-11-02T14:34:48.079Z,95.07
2022-11-02T14:37:49.122Z,85.15
2022-11-02T14:40:54.912Z,90.82
2022-11-02T14:44:02.595Z,87.03
2022-11-02T14:47:01.407Z,71.20
2022-11-02T14:49:36.726Z,60.70
2022-11-02T14:52:28.969Z,48.70
2022-11-02T14:55:28.918Z,48.33
2022-11-02T14:58:18.602Z,53.72
2022-11-02T15:01:06.311Z,45.70
2022-11-02T15:03:42.038Z,48.13
2022-11-02T15:06:29.576Z,42.58
2022-11-02T15:09:02.213Z,43.50
2022-11-02T15:11:46.526Z,36.28
2022-11-02T15:14:41.925Z,38.93
2022-11-02T15:17:21.843Z,41.07
2022-11-02T15:20:14.461Z,44.30
2022-11-02T15:22:49.679Z,39.65
2022-11-02T15:25:33.989Z,37.67
2022-11-02T15:28:20.575Z,37.83
2022-11-02T15:31:09.715Z,36.90
2022-11-02T15:33:48.860Z,38.92
2022-11-02T15:36:41.727Z,37.58
2022-11-02T15:39:19.923Z,36.90
2022-11-02T15:42:28.684Z,39.15
2022-11-02T15:45:56.850Z,41.22
2022-11-02T15:48:59.392Z,39.38
2022-11-02T15:52:06.135Z,39.08
2022-11-02T15:55:10.670Z,43.17
2022-11-02T15:58:08.126Z,42.85
2022-11-02T16:00:39.039Z,38.67
2022-11-02T16:03:12.867Z,41.65
2022-11-02T16:05:50.017Z,41.47
2022-11-02T16:11:34.560Z,44.35
2022-11-02T16:14:20.364Z,42.97
2022-11-02T16:16:52.428Z,39.55
2022-11-02T16:19:24.860Z,39.13
2022-11-02T16:21:55.955Z,40.22
2022-11-02T16:24:28.868Z,43.33
2022-11-02T16:26:58.342Z,39.72
2022-11-02T16:29:39.389Z,43.22
2022-11-02T16:32:12.377Z,44.72
2022-11-02T16:34:42.262Z,41.60
2022-11-02T16:37:20.060Z,48.35
2022-11-02T16:39:53.138Z,47.10
2022-11-02T16:42:26.468Z,47.85
2022-11-02T16:45:05.552Z,48.38
2022-11-02T16:47:51.223Z,44.53
2022-11-02T16:50:22.452Z,48.42
2022-11-02T16:53:02.405Z,57.30
2022-11-02T16:55:46.086Z,46.80
2022-11-02T16:58:24.247Z,46.72
2022-11-02T17:01:05.825Z,46.28
2022-11-02T17:03:39.293Z,55.58
2022-11-02T17:06:12.666Z,55.63
2022-11-02T17:11:19.006Z,57.28
2022-11-02T17:14:02.647Z,52.15
2022-11-02T17:16:37.570Z,52.78
2022-11-02T17:19:06.174Z,52.45
2022-11-02T17:21:37.085Z,53.90
2022-11-02T17:24:31.973Z,53.67
2022-11-02T17:27:18.343Z,51.40
2022-11-02T17:29:48.072Z,55.85
2022-11-02T17:32:20.000Z,50.92
2022-11-02T17:34:58.994Z,58.08
2022-11-02T17:37:29.631Z,54.67
2022-11-02T17:40:02.242Z,62.67
2022-11-02T17:42:50.979Z,57.00
2022-11-02T17:45:43.875Z,59.15
2022-11-02T17:48:13.673Z,63.17
2022-11-02T17:50:44.411Z,54.17
2022-11-02T17:53:18.955Z,58.30
2022-11-02T17:55:47.625Z,54.97
2022-11-02T17:58:17.906Z,57.28
2022-11-02T18:00:49.773Z,57.75
2022-11-02T18:03:22.323Z,51.63
2022-11-02T18:08:29.113Z,62.95
2022-11-02T18:10:57.784Z,68.30
2022-11-02T18:13:29.185Z,66.82
2022-11-02T18:15:59.940Z,60.65
2022-11-02T18:18:32.611Z,69.43
2022-11-02T18:23:47.410Z,64.45
2022-11-02T18:26:17.896Z,70.32
2022-11-02T18:28:46.811Z,73.05
2022-11-02T18:31:19.170Z,70.95
2022-11-02T18:33:49.767Z,68.13
2022-11-02T18:36:18.903Z,63.92
2022-11-02T18:38:49.879Z,64.03
2022-11-02T18:41:31.083Z,65.20
2022-11-02T18:44:05.741Z,62.20
2022-11-02T18:46:41.115Z,61.92
2022-11-02T18:49:12.166Z,64.10
2022-11-02T18:51:43.939Z,59.97
2022-11-02T18:54:15.688Z,57.55
2022-11-02T18:56:46.898Z,60.15
2022-11-02T18:59:14.916Z,55.63
2022-11-02T19:01:43.716Z,62.42
2022-11-02T19:04:17.210Z,55.15
2022-11-02T19:07:10.055Z,68.18
2022-11-02T19:09:46.688Z,66.28
2022-11-02T19:12:33.230Z,62.95
2022-11-02T19:15:02.957Z,70.38
2022-11-02T19:17:33.020Z,66.10
2022-11-02T19:20:03.202Z,65.93
2022-11-02T19:22:33.161Z,69.68
2022-11-02T19:25:05.125Z,70.40
2022-11-02T19:27:35.891Z,79.03
2022-11-02T19:30:05.394Z,74.43
2022-11-02T19:32:36.221Z,67.18
2022-11-02T19:35:04.928Z,68.60
2022-11-02T19:37:34.891Z,75.25
2022-11-02T19:40:03.819Z,73.35
2022-11-02T19:42:34.027Z,79.60
2022-11-02T19:45:04.223Z,73.88
2022-11-02T19:47:32.990Z,75.63
2022-11-02T19:50:02.131Z,70.18
2022-11-02T19:52:34.171Z,75.57
2022-11-02T19:55:04.257Z,75.15
2022-11-02T19:57:34.198Z,74.13
2022-11-02T20:00:05.235Z,76.90
2022-11-02T20:02:55.954Z,76.40
2022-11-02T20:05:27.435Z,88.10
2022-11-02T20:07:58.481Z,84.13
2022-11-02T20:10:28.051Z,86.72
2022-11-02T20:12:57.046Z,73.38
2022-11-02T20:15:25.656Z,81.43
2022-11-02T20:18:18.412Z,76.90
2022-11-02T20:20:48.977Z,81.72
2022-11-02T20:23:18.871Z,79.30
2022-11-02T20:25:47.273Z,71.43
2022-11-02T20:28:17.295Z,72.47
2022-11-02T20:30:46.763Z,78.13
2022-11-02T20:33:14.745Z,71.70
2022-11-02T20:35:47.937Z,71.18
2022-11-02T20:38:18.448Z,77.22
2022-11-02T20:40:49.287Z,70.38
2022-11-02T20:43:17.690Z,80.35
2022-11-02T20:45:47.314Z,79.40
2022-11-02T20:48:18.063Z,78.68
2022-11-02T20:50:46.785Z,73.43
2022-11-02T20:53:14.720Z,77.90
2022-11-02T20:55:45.706Z,71.65
2022-11-02T20:58:13.765Z,69.85
2022-11-02T21:00:44.678Z,74.68
2022-11-02T21:03:13.344Z,73.15
2022-11-02T21:05:46.152Z,74.13
2022-11-02T21:08:14.360Z,75.20
2022-11-02T21:10:44.185Z,66.72
2022-11-02T21:13:36.770Z,70.78
2022-11-02T21:16:05.237Z,70.70
2022-11-02T21:18:37.299Z,68.10
2022-11-02T21:21:09.033Z,77.63
2022-11-02T21:23:42.685Z,73.03
2022-11-02T21:26:13.418Z,68.80
2022-11-02T21:28:47.182Z,77.75
2022-11-02T21:31:22.554Z,80.07
2022-11-02T21:33:52.955Z,79.10
2022-11-02T21:36:20.894Z,81.38
2022-11-02T21:38:50.445Z,82.38
2022-11-02T21:41:20.727Z,79.50
2022-11-02T21:43:52.034Z,95.47
2022-11-02T21:46:20.140Z,92.63
2022-11-02T21:48:51.400Z,91.70
2022-11-02T21:51:24.172Z,86.82
2022-11-02T21:53:56.600Z,87.13
2022-11-02T21:56:29.793Z,95.10
2022-11-02T21:59:01.333Z,94.10
2022-11-02T22:01:50.436Z,100.93
2022-11-02T22:04:24.899Z,99.40
2022-11-02T22:06:53.063Z,103.80
2022-11-02T22:09:21.817Z,101.00
2022-11-02T22:12:13.560Z,106.32
2022-11-02T22:14:46.140Z,102.20
2022-11-02T22:17:35.431Z,97.95
2022-11-02T22:20:08.543Z,105.88
2022-11-02T22:22:36.826Z,91.68
2022-11-02T22:25:05.481Z,92.40
2022-11-02T22:27:33.032Z,97.43
2022-11-02T22:30:01.028Z,112.45
2022-11-02T22:32:32.229Z,97.78
2022-11-02T22:35:02.885Z,107.72
2022-11-02T22:37:52.637Z,106.93
2022-11-02T22:40:26.114Z,100.93
2022-11-02T22:42:55.069Z,104.07
2022-11-02T22:45:25.895Z,100.13
2022-11-02T22:47:56.354Z,104.35
2022-11-02T22:50:28.020Z,105.55
2022-11-02T22:52:56.532Z,112.75
2022-11-02T22:55:25.756Z,115.55
2022-11-02T22:57:59.770Z,115.13
2022-11-02T23:00:27.909Z,116.00
2022-11-02T23:02:59.554Z,122.25
2022-11-02T23:05:27.611Z,117.82
2022-11-02T23:07:54.865Z,108.40
2022-11-02T23:10:44.840Z,114.22
2022-11-02T23:13:15.589Z,111.57
2022-11-02T23:15:46.117Z,114.40
2022-11-02T23:18:16.565Z,108.00
2022-11-02T23:20:54.188Z,102.07
2022-11-02T23:23:43.830Z,98.88
2022-11-02T23:26:16.026Z,107.65
2022-11-02T23:29:14.624Z,106.35
2022-11-02T23:32:03.430Z,108.45
2022-11-02T23:34:32.086Z,110.68
2022-11-02T23:37:02.227Z,121.55
2022-11-02T23:39:48.134Z,110.85
2022-11-02T23:42:19.896Z,113.82
2022-11-02T23:44:48.359Z,119.07
2022-11-02T23:47:20.327Z,106.85
2022-11-02T23:49:51.414Z,108.22
2022-11-02T23:52:38.354Z,109.35
2022-11-02T23:55:32.339Z,125.20
2022-11-02T23:57:59.880Z,114.82
